Notice: Undefined index: language in /storage/ssd5/510/10272510/public_html/vam1/vam/index.php on line 25
Brand Clickair VA

www.000webhost.com
 METAR AND TAF INFORMATION
METAR FOR LGPZ
ADDS - METARS form results

(0826 UTC 14 August 2020)
Data provider http://aviationweather.gov/metar/data/
 
METAR text: LGPZ 140820Z 04007KT CAVOK 30/20 Q1013
Conditions at: LGPZ (PREVEZA/AKTION , GR) observed 0820 UTC 14 August 2020
Temperature: 30.0°C (86°F)
Dewpoint: 20.0°C (68°F) [RH = 55%]
Pressure (altimeter): 29.91 inches Hg (1013.0 mb)
Winds: from the NE (40 degrees) at 8 MPH (7 knots; 3.6 m/s)
Visibility: 6 or more miles (10+ km)
Ceiling: ceiling and visibility are OK
Clouds: unknown
Weather: no significant weather observed at this time

METAR text: LGPZ 140750Z 04006KT CAVOK 30/21 Q1013
Conditions at: LGPZ (PREVEZA/AKTION , GR) observed 0750 UTC 14 August 2020
Temperature: 30.0°C (86°F)
Dewpoint: 21.0°C (70°F) [RH = 59%]
Pressure (altimeter): 29.91 inches Hg (1013.0 mb)
Winds: from the NE (40 degrees) at 7 MPH (6 knots; 3.1 m/s)
Visibility: 6 or more miles (10+ km)
Ceiling: ceiling and visibility are OK
Clouds: unknown
Weather: no significant weather observed at this time

Forecast for: LGPZ (PREVEZA/AKTION , GR)
Text: TAF LGPZ 140500Z 1406/1506 VRB05KT 9999 FEW025
Forecast period: 0600 to 1000 UTC 14 August 2020
Forecast type: FROM: standard forecast or significant change
Winds: variable direction winds at 6 MPH (5 knots; 2.6 m/s)
Visibility: 6 or more miles (10+ km)
Ceiling: at least 12,000 feet AGL
Clouds: few clouds at 2500 feet AGL
Weather: no significant weather forecast for this period
Text: BECMG 1410/1412 26010KT
Forecast period: 1000 UTC 14 August 2020 to 0600 UTC 15 August 2020
Forecast type: BECOMING: Conditions expected to become as follows by 1200 UTC 14 August 2020
Winds: from the W (260 degrees) at 12 MPH (10 knots; 5.1 m/s)
Visibility: 6 or more miles (10+ km)
Ceiling: at least 12,000 feet AGL
Clouds: few clouds at 2500 feet AGL
Weather: no significant weather forecast for this period

 AIRPORT MAP

 RUNWAY INFORMATION
Runway 07L Runway length 9419 ft Runway width 148 ft
Runway elevation 9 ft Runway displaced threshold 0 ft Runway heading 68
Runway 25R Runway length 9419 ft Runway width 148 ft
Runway elevation 11 ft Runway displaced threshold 492 ft Runway heading 248

 AIRPORT FREQUENCIES
Type A/G Name RDO Frequency 563.7 MHZ
Type APP Name APP Frequency 120.45 MHZ
Type TWR Name TWR Frequency 120.45 MHZ

 AIRPORT NEAR NAVIGATION AIDS
Type NDB Name Preveza Frequency 353 KHZ



Powered by Virtual Airlines Manager [v2.6.2]